Time;durP1;ratioP1;P1;durP2;ratioP2;P2;SDS_P1;SDS_P2;PMS_P1;PMS_P2;Temp;Humidity;BMP_temperature;BMP_pressure;BME280_temperature;BME280_humidity;BME280_pressure;Samples;Min_cycle;Max_cycle;Signal;HPM_P1;HPM_P2
2023/05/15 00:02:07;;;;;;;8.20;3.08;;;;;;;14.02;54.07;100443.32;1649198;87;21216;-80
2023/05/15 00:05:14;;;;;;;6.10;3.42;;;;;;;14.08;54.09;100439.45;1648658;87;21249;-80
2023/05/15 00:08:21;;;;;;;8.78;3.47;;;;;;;14.08;54.22;100439.45;1649275;87;21220;-80
2023/05/15 00:11:27;;;;;;;10.82;3.47;;;;;;;14.04;54.09;100434.33;1647899;87;21221;-80
2023/05/15 00:14:33;;;;;;;14.65;3.27;;;;;;;14.00;53.97;100437.14;1648846;87;21260;-80
2023/05/15 00:17:39;;;;;;;8.40;3.33;;;;;;;14.01;53.62;100436.09;1649153;87;21256;-80
2023/05/15 00:20:45;;;;;;;5.08;3.20;;;;;;;14.05;53.20;100437.41;1649430;87;21268;-80
2023/05/15 00:23:52;;;;;;;9.10;2.83;;;;;;;14.05;52.76;100429.16;1649248;87;21776;-80
2023/05/15 00:26:58;;;;;;;7.80;3.42;;;;;;;13.87;53.13;100441.65;1649212;87;21196;-80
2023/05/15 00:30:04;;;;;;;9.80;3.87;;;;;;;13.85;53.57;100440.48;1648539;87;21280;-80
2023/05/15 00:33:09;;;;;;;10.18;3.67;;;;;;;13.91;53.44;100445.72;1649212;87;21252;-79
2023/05/15 00:36:16;;;;;;;8.10;3.55;;;;;;;13.86;53.66;100447.67;1648356;87;21281;-79
2023/05/15 00:39:21;;;;;;;9.80;3.75;;;;;;;14.02;53.30;100443.32;1647902;87;21225;-79
2023/05/15 00:42:26;;;;;;;5.83;3.30;;;;;;;14.00;53.16;100445.39;1649180;87;21213;-79
2023/05/15 00:45:32;;;;;;;8.48;3.37;;;;;;;14.08;52.88;100453.20;1632304;87;21288;-79
2023/05/15 00:48:38;;;;;;;12.68;3.30;;;;;;;14.09;52.68;100444.75;1630701;88;21261;-78
2023/05/15 00:51:37;;;;;;;17.45;3.62;;;;;;;14.14;52.90;100450.52;1635155;87;21217;-79
2023/05/15 00:54:32;;;;;;;20.65;3.67;;;;;;;14.14;52.89;100445.54;1649169;87;21300;-79
2023/05/15 00:57:38;;;;;;;15.63;3.30;;;;;;;14.12;52.88;100446.27;1627519;86;21244;-79
2023/05/15 01:00:42;;;;;;;4.55;3.05;;;;;;;14.02;53.18;100449.31;1632825;86;21223;-79
2023/05/15 01:03:48;;;;;;;6.92;3.25;;;;;;;14.02;53.18;100451.57;1644961;86;21268;-79
2023/05/15 01:06:54;;;;;;;13.78;3.75;;;;;;;14.05;53.38;100451.16;1644054;86;21248;-79
2023/05/15 01:09:59;;;;;;;11.93;3.87;;;;;;;13.96;53.35;100450.11;1656863;86;21220;-79
2023/05/15 01:13:05;;;;;;;7.17;3.72;;;;;;;14.02;53.60;100449.31;1656804;86;21771;-79
2023/05/15 01:16:06;;;;;;;6.03;3.33;;;;;;;13.92;54.15;100451.01;1655925;86;21259;-79
2023/05/15 01:18:58;;;;;;;8.63;3.12;;;;;;;13.69;56.08;100457.19;1644895;86;21260;-79
2023/05/15 01:22:32;;;;;;;12.63;3.85;;;;;;;13.48;57.02;100454.73;1655547;85;21204;-79
2023/05/15 01:25:52;;;;;;;8.65;3.50;;;;;;;13.32;57.34;100455.47;1644972;86;21552;-79
2023/05/15 01:29:04;;;;;;;11.83;3.33;;;;;;;13.26;56.69;100451.56;1640809;86;21268;-79
2023/05/15 01:32:18;;;;;;;5.72;3.10;;;;;;;13.20;56.58;100449.56;1647746;87;21288;-79
2023/05/15 01:35:59;;;;;;;5.30;2.90;;;;;;;13.19;56.51;100446.48;1649214;87;21220;-79
2023/05/15 01:39:06;;;;;;;10.03;2.98;;;;;;;13.25;56.19;100441.63;1631267;87;21217;-79
2023/05/15 01:42:20;;;;;;;7.92;3.27;;;;;;;13.32;55.94;100446.70;1653680;87;21196;-79
2023/05/15 01:45:25;;;;;;;6.47;3.05;;;;;;;13.28;56.12;100444.86;1645433;86;21240;-79
2023/05/15 01:48:31;;;;;;;7.03;3.55;;;;;;;13.23;56.42;100445.10;1632740;87;21213;-79
2023/05/15 01:51:36;;;;;;;7.33;3.67;;;;;;;13.15;56.64;100440.52;1624646;87;21213;-79
2023/05/15 01:54:42;;;;;;;10.25;3.47;;;;;;;13.20;56.37;100435.83;1634649;86;21193;-79
2023/05/15 01:57:48;;;;;;;11.33;3.62;;;;;;;13.16;56.45;100432.60;1655557;86;21377;-79
2023/05/15 02:00:54;;;;;;;9.93;4.10;;;;;;;13.22;56.35;100435.13;1662550;86;21223;-79
2023/05/15 02:03:59;;;;;;;10.82;3.72;;;;;;;13.29;56.05;100432.81;1663362;86;21220;-79
2023/05/15 02:07:04;;;;;;;7.72;3.62;;;;;;;13.46;55.16;100429.35;1662906;86;21279;-79
2023/05/15 02:10:10;;;;;;;7.85;3.50;;;;;;;13.62;54.33;100426.04;1663403;86;21591;-79
2023/05/15 02:13:17;;;;;;;9.80;3.58;;;;;;;13.46;54.46;100429.87;1663413;86;21251;-79
2023/05/15 02:16:23;;;;;;;18.15;3.98;;;;;;;13.41;54.53;100427.70;1663026;86;21228;-79
2023/05/15 02:19:30;;;;;;;6.62;3.10;;;;;;;13.64;54.01;100429.43;1663351;86;21219;-78
2023/05/15 02:22:35;;;;;;;9.73;3.72;;;;;;;13.75;53.71;100427.05;1663394;86;21267;-79
2023/05/15 02:26:04;;;;;;;10.50;3.27;;;;;;;13.93;53.35;100418.36;1662768;86;21220;-79
2023/05/15 02:29:25;;;;;;;11.40;4.12;;;;;;;14.33;52.64;100424.23;1664687;85;21765;-79
2023/05/15 02:33:10;;;;;;;10.95;3.62;;;;;;;14.75;51.40;100412.86;1640725;86;21307;-79
2023/05/15 02:36:17;;;;;;;14.73;3.55;;;;;;;15.14;50.39;100408.64;1670338;85;21204;-79
2023/05/15 02:39:24;;;;;;;5.00;3.40;;;;;;;15.72;49.00;100412.76;1670484;85;21189;-79
2023/05/15 02:42:30;;;;;;;8.80;3.45;;;;;;;16.08;48.10;100408.25;1656082;86;21220;-79
2023/05/15 02:45:36;;;;;;;21.45;3.33;;;;;;;16.50;47.21;100408.08;1666221;86;21209;-79
2023/05/15 02:48:44;;;;;;;7.92;3.10;;;;;;;16.94;46.13;100409.33;1667507;85;21232;-79
2023/05/15 02:51:49;;;;;;;12.98;3.90;;;;;;;17.23;45.39;100413.00;1656095;86;21224;-79
2023/05/15 02:54:55;;;;;;;16.05;3.47;;;;;;;17.59;44.62;100413.79;1663278;86;21204;-79
2023/05/15 02:57:59;;;;;;;5.87;2.83;;;;;;;17.99;43.49;100421.08;1653021;85;21236;-78
2023/05/15 03:01:05;;;;;;;13.80;3.22;;;;;;;18.25;42.75;100417.27;1649127;86;21241;-79
2023/05/15 03:04:12;;;;;;;8.95;2.83;;;;;;;18.32;42.35;100420.31;1649115;87;21193;-79
2023/05/15 03:07:17;;;;;;;9.05;3.10;;;;;;;18.42;42.17;100417.59;1648859;87;21243;-79
2023/05/15 03:10:23;;;;;;;11.03;3.00;;;;;;;18.64;41.78;100414.20;1653066;86;21216;-79
2023/05/15 03:13:28;;;;;;;8.00;3.00;;;;;;;18.89;41.42;100420.29;1653680;86;21265;-79
2023/05/15 03:16:35;;;;;;;6.92;3.10;;;;;;;19.13;41.15;100418.55;1653322;86;21279;-81
2023/05/15 03:19:41;;;;;;;8.63;2.50;;;;;;;19.49;40.55;100420.48;1649332;86;21208;-79
2023/05/15 03:22:48;;;;;;;12.33;2.98;;;;;;;19.81;40.17;100423.10;1649393;86;21315;-79
2023/05/15 03:25:54;;;;;;;11.45;3.25;;;;;;;20.02;39.85;100426.73;1653610;86;21217;-78
2023/05/15 03:28:59;;;;;;;8.18;3.08;;;;;;;20.08;39.54;100419.39;1652775;86;21284;-79
2023/05/15 03:32:06;;;;;;;6.55;3.15;;;;;;;20.43;39.00;100420.89;1654013;86;21299;-79
2023/05/15 03:35:12;;;;;;;7.72;2.70;;;;;;;20.59;38.54;100425.77;1654078;86;21213;-79
2023/05/15 03:38:18;;;;;;;10.00;2.90;;;;;;;20.75;38.40;100423.36;1654170;86;21217;-79
2023/05/15 03:41:26;;;;;;;5.87;2.58;;;;;;;20.66;38.08;100427.91;1654031;86;21252;-79
2023/05/15 03:44:32;;;;;;;15.25;3.50;;;;;;;20.83;37.85;100424.40;1651730;86;21792;-79
2023/05/15 03:47:38;;;;;;;5.67;3.05;;;;;;;20.95;37.69;100432.77;1650550;86;21240;-78
2023/05/15 03:50:45;;;;;;;6.40;2.65;;;;;;;21.32;37.27;100430.59;1651089;86;21752;-79
2023/05/15 03:53:52;;;;;;;6.80;2.67;;;;;;;21.52;37.00;100439.38;1653695;86;21212;-79
2023/05/15 03:56:59;;;;;;;7.55;2.60;;;;;;;21.66;36.90;100439.95;1644755;87;21205;-79
2023/05/15 04:00:08;;;;;;;8.43;2.77;;;;;;;21.75;36.88;100434.85;1648475;86;21228;-79
2023/05/15 04:03:14;;;;;;;8.13;3.10;;;;;;;21.92;37.99;100442.70;1648981;87;21248;-79
2023/05/15 04:06:21;;;;;;;11.30;2.70;;;;;;;21.86;37.67;100437.58;1649127;87;21323;-78
2023/05/15 04:09:28;;;;;;;11.95;3.52;;;;;;;21.93;37.61;100434.66;1648185;87;21292;-79
2023/05/15 04:12:32;;;;;;;15.23;2.83;;;;;;;22.03;37.71;100439.59;1647812;85;21204;-79
2023/05/15 04:15:39;;;;;;;9.20;2.87;;;;;;;22.14;36.97;100429.80;1649131;87;21811;-79
2023/05/15 04:18:45;;;;;;;6.62;3.02;;;;;;;22.26;37.07;100433.09;1647860;87;21315;-80
2023/05/15 04:21:51;;;;;;;6.00;2.70;;;;;;;22.40;37.56;100441.44;1647993;87;21867;-79
2023/05/15 04:24:56;;;;;;;10.28;2.85;;;;;;;22.55;37.07;100437.52;1648210;87;21339;-79
2023/05/15 04:28:02;;;;;;;9.15;2.90;;;;;;;22.68;36.93;100434.41;1648397;87;21241;-79
2023/05/15 04:31:07;;;;;;;3.58;2.72;;;;;;;22.87;36.79;100426.63;1648512;87;21264;-79
2023/05/15 04:34:12;;;;;;;9.98;2.83;;;;;;;23.08;36.83;100439.52;1647943;87;21252;-79
2023/05/15 04:37:18;;;;;;;10.23;2.83;;;;;;;23.36;36.70;100450.53;1649080;87;21205;-80
2023/05/15 04:40:23;;;;;;;7.28;2.50;;;;;;;23.70;36.19;100451.86;1648397;87;21209;-79
2023/05/15 04:43:30;;;;;;;15.35;4.08;;;;;;;23.92;36.45;100452.70;1648981;87;21221;-79
2023/05/15 04:46:38;;;;;;;17.12;5.10;;;;;;;24.00;35.82;100450.56;1649045;87;21221;-79
2023/05/15 04:49:43;;;;;;;24.07;8.75;;;;;;;24.11;35.75;100443.97;1648211;87;21244;-79
2023/05/15 04:52:50;;;;;;;28.00;12.33;;;;;;;24.25;35.55;100444.41;1649155;87;21193;-79
2023/05/15 04:55:56;;;;;;;35.05;13.83;;;;;;;24.43;35.04;100447.70;1647812;87;21221;-79
2023/05/15 04:59:02;;;;;;;48.58;16.57;;;;;;;24.57;34.08;100441.67;1647811;87;21201;-79
2023/05/15 05:02:08;;;;;;;41.73;16.42;;;;;;;24.65;33.54;100440.61;1655483;85;21773;-80
2023/05/15 05:05:15;;;;;;;43.25;15.55;;;;;;;24.65;33.47;100439.21;1619629;88;21917;-79
2023/05/15 05:08:21;;;;;;;46.30;16.35;;;;;;;24.78;33.80;100436.53;1629958;88;21268;-79
2023/05/15 05:11:20;;;;;;;49.40;16.85;;;;;;;25.08;33.08;100440.16;1626654;88;21220;-79
2023/05/15 05:14:25;;;;;;;42.30;14.10;;;;;;;25.22;33.10;100441.94;1655495;85;21221;-79
2023/05/15 05:17:32;;;;;;;33.10;14.75;;;;;;;25.36;33.15;100447.88;1644458;85;21824;-79
2023/05/15 05:20:37;;;;;;;33.28;12.53;;;;;;;25.38;32.52;100448.46;1661510;85;21211;-79
2023/05/15 05:23:43;;;;;;;28.07;10.15;;;;;;;25.60;32.81;100453.35;1653255;85;21335;-79
2023/05/15 05:26:52;;;;;;;39.40;11.45;;;;;;;25.66;32.55;100451.41;1641263;85;21747;-79
2023/05/15 05:29:57;;;;;;;30.77;11.15;;;;;;;25.71;32.10;100453.67;1637862;85;21205;-79
2023/05/15 05:33:03;;;;;;;21.77;8.08;;;;;;;25.76;32.23;100457.09;1640607;85;21259;-79
2023/05/15 05:36:09;;;;;;;23.65;8.28;;;;;;;25.88;32.05;100456.31;1663222;85;21276;-79
2023/05/15 05:39:15;;;;;;;26.87;7.65;;;;;;;25.82;31.23;100456.55;1646363;85;21586;-79
2023/05/15 05:42:24;;;;;;;24.52;6.40;;;;;;;25.96;31.09;100459.12;1645216;85;21223;-80
2023/05/15 05:45:32;;;;;;;18.50;5.97;;;;;;;26.14;29.33;100458.63;1648869;85;21804;-79
2023/05/15 05:48:38;;;;;;;12.75;5.70;;;;;;;26.18;28.74;100452.75;1640349;85;21745;-80
2023/05/15 05:51:46;;;;;;;19.98;6.97;;;;;;;26.35;28.59;100458.66;1664233;85;21848;-80
2023/05/15 05:54:50;;;;;;;19.45;6.42;;;;;;;26.44;27.82;100456.50;1659765;85;21812;-80
2023/05/15 05:57:57;;;;;;;17.87;8.25;;;;;;;26.50;27.38;100453.97;1635292;86;21225;-80
2023/05/15 06:01:04;;;;;;;22.90;6.17;;;;;;;26.63;27.75;100456.80;1654218;85;21256;-80
2023/05/15 06:04:10;;;;;;;17.30;5.85;;;;;;;26.67;27.28;100450.05;1661899;85;21201;-79
2023/05/15 06:07:16;;;;;;;16.20;6.03;;;;;;;26.83;27.22;100456.52;1633978;87;21198;-79
2023/05/15 06:10:21;;;;;;;16.20;5.40;;;;;;;26.88;27.45;100457.92;1654500;85;21253;-79
2023/05/15 06:13:28;;;;;;;21.57;6.60;;;;;;;26.97;27.61;100452.02;1667416;85;21220;-79
2023/05/15 06:16:33;;;;;;;16.67;5.97;;;;;;;27.11;28.53;100453.16;1644694;86;21220;-80
2023/05/15 06:19:40;;;;;;;20.45;5.12;;;;;;;27.18;28.59;100448.08;1652565;85;21336;-79
2023/05/15 06:22:48;;;;;;;14.40;4.70;;;;;;;27.20;28.26;100447.25;1652186;87;21212;-81
2023/05/15 06:25:53;;;;;;;15.60;5.00;;;;;;;27.25;27.99;100452.86;1648190;85;21207;-79
2023/05/15 06:28:59;;;;;;;14.47;4.58;;;;;;;27.19;27.71;100448.36;1654004;85;21279;-79
2023/05/15 06:32:06;;;;;;;17.82;4.25;;;;;;;27.37;27.15;100443.27;1651088;85;21236;-79
2023/05/15 06:35:12;;;;;;;19.85;4.75;;;;;;;27.51;26.84;100445.20;1648708;86;21206;-79
2023/05/15 06:38:18;;;;;;;15.53;4.53;;;;;;;27.38;26.59;100441.58;1655386;85;21917;-79
2023/05/15 06:41:22;;;;;;;18.52;4.45;;;;;;;28.11;26.73;100442.45;1645725;86;21204;-80
2023/05/15 06:44:31;;;;;;;15.93;4.70;;;;;;;28.28;26.31;100436.45;1651275;85;21187;-79
2023/05/15 06:47:38;;;;;;;20.80;4.03;;;;;;;28.44;27.41;100432.99;1676876;84;21188;-80
2023/05/15 06:50:44;;;;;;;15.00;4.20;;;;;;;28.49;28.11;100431.55;1671470;84;21229;-81
2023/05/15 06:53:50;;;;;;;17.48;5.03;;;;;;;28.66;27.43;100432.55;1645569;85;21215;-79
2023/05/15 06:56:50;;;;;;;11.75;3.47;;;;;;;28.76;27.22;100437.52;1656024;85;21209;-79
2023/05/15 06:59:55;;;;;;;7.20;2.72;;;;;;;28.61;28.12;100439.63;1658065;85;21234;-81
2023/05/15 07:03:00;;;;;;;12.35;2.67;;;;;;;29.00;25.92;100439.59;1650743;85;21263;-80
2023/05/15 07:06:05;;;;;;;6.12;2.37;;;;;;;29.12;25.43;100431.58;1633000;85;21228;-79
2023/05/15 07:09:14;;;;;;;8.28;2.50;;;;;;;29.18;25.57;100429.00;1648320;84;21260;-79
2023/05/15 07:12:21;;;;;;;8.45;2.02;;;;;;;29.04;26.02;100430.84;1659064;84;21192;-79
2023/05/15 07:15:29;;;;;;;7.97;2.58;;;;;;;29.19;25.94;100433.48;1664442;84;21183;-79
2023/05/15 07:18:36;;;;;;;6.72;1.87;;;;;;;29.03;26.94;100434.22;1655183;84;21862;-79
2023/05/15 07:21:45;;;;;;;8.10;2.15;;;;;;;29.09;26.56;100429.38;1644781;84;21831;-80
2023/05/15 07:24:51;;;;;;;7.78;2.35;;;;;;;29.16;26.53;100433.23;1668812;84;21194;-80
2023/05/15 07:27:57;;;;;;;4.78;2.20;;;;;;;29.28;24.72;100421.84;1636226;84;21751;-79
2023/05/15 07:31:03;;;;;;;8.10;2.30;;;;;;;29.23;24.89;100425.29;1672939;84;21237;-80
2023/05/15 07:34:09;;;;;;;13.35;2.98;;;;;;;29.15;24.95;100421.13;1661950;84;21875;-80
2023/05/15 07:37:16;;;;;;;4.00;2.17;;;;;;;29.43;26.30;100425.62;1641698;85;21220;-80
2023/05/15 07:40:24;;;;;;;;;;;;;;;29.62;25.76;100423.73;1662844;84;21204;-79
2023/05/15 07:43:31;;;;;;;8.10;1.85;;;;;;;29.65;25.57;100420.91;1657290;84;20213;-79
2023/05/15 07:46:37;;;;;;;6.37;2.02;;;;;;;29.83;25.54;100419.23;1669118;84;21262;-79
2023/05/15 07:49:44;;;;;;;4.42;1.70;;;;;;;29.65;24.81;100413.86;1659452;84;21244;-79
2023/05/15 07:52:49;;;;;;;6.72;1.90;;;;;;;29.52;24.43;100408.34;1665814;83;21218;-79
2023/05/15 07:55:55;;;;;;;6.33;2.40;;;;;;;29.64;22.37;100409.34;1682391;83;21755;-79
2023/05/15 07:58:54;;;;;;;8.43;2.08;;;;;;;29.81;23.41;100412.50;1675440;83;21195;-80
2023/05/15 08:02:00;;;;;;;4.10;1.87;;;;;;;29.91;23.73;100410.95;1635423;86;22748;-78
2023/05/15 08:05:09;;;;;;;12.83;1.90;;;;;;;29.95;22.48;100415.42;1620691;87;21215;-80
2023/05/15 08:08:14;;;;;;;5.67;1.80;;;;;;;30.04;22.06;100411.62;1615741;87;21211;-80
2023/05/15 08:11:20;;;;;;;4.87;1.82;;;;;;;29.90;21.67;100411.27;1606526;86;21829;-84
2023/05/15 08:14:26;;;;;;;5.10;1.90;;;;;;;29.95;23.05;100416.26;1603810;86;21215;-80
2023/05/15 08:17:33;;;;;;;6.62;1.90;;;;;;;29.93;23.65;100413.49;1610986;86;21241;-80
2023/05/15 08:20:39;;;;;;;6.45;1.60;;;;;;;29.90;23.48;100407.88;1605416;88;21235;-80
2023/05/15 08:23:45;;;;;;;4.12;1.77;;;;;;;30.04;22.63;100410.78;1599156;89;21786;-80
2023/05/15 08:26:52;;;;;;;7.17;1.65;;;;;;;29.97;22.42;100408.35;1613138;86;21276;-80
2023/05/15 08:29:51;;;;;;;7.67;2.08;;;;;;;29.99;21.83;100398.17;1649224;84;21227;-80
2023/05/15 08:32:57;;;;;;;8.63;1.75;;;;;;;30.01;22.33;100403.75;1654501;84;21231;-80
2023/05/15 08:36:02;;;;;;;8.75;1.60;;;;;;;30.18;23.20;100401.03;1649943;86;21232;-80
2023/05/15 08:39:08;;;;;;;3.90;1.90;;;;;;;30.31;23.36;100394.62;1650487;84;21196;-80
2023/05/15 08:42:33;;;;;;;7.37;1.57;;;;;;;30.43;21.71;100394.14;1651227;84;21265;-79
2023/05/15 08:45:39;;;;;;;5.35;1.90;;;;;;;30.34;22.45;100390.34;1679743;83;21267;-80
2023/05/15 08:48:45;;;;;;;8.30;1.77;;;;;;;30.34;22.29;100385.53;1657237;85;22266;-80
2023/05/15 08:51:51;;;;;;;5.30;1.72;;;;;;;30.24;21.00;100385.69;1650419;85;21193;-79
2023/05/15 08:54:56;;;;;;;7.67;1.90;;;;;;;30.14;22.19;100382.46;1643207;84;21226;-80
2023/05/15 08:58:03;;;;;;;11.85;1.92;;;;;;;30.28;24.05;100383.37;1650468;85;21726;-79
2023/05/15 09:01:09;;;;;;;5.35;2.05;;;;;;;30.35;22.93;100381.59;1610313;87;21195;-79
2023/05/15 09:04:14;;;;;;;8.90;2.40;;;;;;;30.28;22.24;100376.89;1641347;85;21343;-79
2023/05/15 09:07:21;;;;;;;18.75;1.65;;;;;;;30.45;20.58;100369.30;1612316;86;21279;-80
2023/05/15 09:10:28;;;;;;;5.72;1.80;;;;;;;30.25;21.13;100365.66;1658041;83;21303;-79
2023/05/15 09:13:35;;;;;;;4.85;1.62;;;;;;;29.98;20.29;100359.84;1644327;84;21228;-79
2023/05/15 09:16:40;;;;;;;2.75;1.40;;;;;;;29.98;19.99;100358.44;1607442;86;21335;-79
2023/05/15 09:19:48;;;;;;;4.95;1.47;;;;;;;29.84;21.19;100351.88;1657192;84;21211;-79
2023/05/15 09:22:54;;;;;;;6.75;1.65;;;;;;;29.85;22.26;100357.77;1659033;84;21240;-80
2023/05/15 09:25:59;;;;;;;2.17;1.52;;;;;;;29.75;20.45;100352.55;1639295;85;21288;-79
2023/05/15 09:29:08;;;;;;;8.63;1.60;;;;;;;29.43;21.20;100354.63;1610664;86;21302;-79
2023/05/15 09:32:17;;;;;;;4.00;1.40;;;;;;;29.30;21.90;100359.56;1666091;84;21200;-80
2023/05/15 09:35:44;;;;;;;7.97;1.80;;;;;;;29.22;21.51;100351.23;1669988;84;21202;-80
2023/05/15 09:38:50;;;;;;;8.08;1.55;;;;;;;29.42;20.94;100353.53;1625075;85;21244;-80
2023/05/15 09:41:56;;;;;;;6.12;1.65;;;;;;;29.59;21.75;100349.65;1639674;85;21529;-80
2023/05/15 09:45:02;;;;;;;8.30;1.90;;;;;;;29.59;21.13;100350.22;1636057;86;21209;-80
2023/05/15 09:48:13;;;;;;;7.65;1.50;;;;;;;29.74;21.77;100346.64;1644844;85;21211;-80
2023/05/15 09:51:24;;;;;;;5.03;1.45;;;;;;;29.86;22.18;100348.16;1628972;86;21224;-80
2023/05/15 09:54:30;;;;;;;3.55;1.77;;;;;;;30.02;20.51;100338.36;1662640;83;21251;-80
2023/05/15 09:57:35;;;;;;;15.55;1.80;;;;;;;30.00;20.92;100334.98;1675750;83;21242;-80
2023/05/15 10:00:42;;;;;;;2.67;1.52;;;;;;;30.06;20.83;100326.70;1669338;84;21828;-80
2023/05/15 10:03:48;;;;;;;11.53;1.75;;;;;;;30.15;21.46;100331.11;1665340;83;21215;-81
2023/05/15 10:06:54;;;;;;;5.12;2.05;;;;;;;30.27;21.15;100329.50;1614416;85;21235;-80
2023/05/15 10:10:01;;;;;;;3.30;1.37;;;;;;;30.40;20.43;100328.47;1617987;86;21239;-80
2023/05/15 10:13:07;;;;;;;9.35;1.60;;;;;;;30.72;19.90;100332.70;1600623;86;21266;-80
2023/05/15 10:16:19;;;;;;;4.90;1.80;;;;;;;30.68;20.04;100331.63;1595550;88;22131;-81
2023/05/15 10:19:29;;;;;;;11.40;1.57;;;;;;;30.85;19.94;100325.98;1593742;88;21320;-81
2023/05/15 10:22:36;;;;;;;4.17;1.45;;;;;;;30.87;19.45;100320.30;1621902;86;21231;-81
2023/05/15 10:25:51;;;;;;;6.15;1.50;;;;;;;30.85;19.38;100325.98;1620672;87;21260;-80
2023/05/15 10:28:56;;;;;;;4.05;1.52;;;;;;;31.05;19.37;100322.76;1624211;87;21221;-80
2023/05/15 10:32:02;;;;;;;4.80;1.60;;;;;;;31.19;18.63;100329.25;1634601;85;21244;-81
2023/05/15 10:35:08;;;;;;;7.00;1.37;;;;;;;31.83;18.36;100320.04;1632132;85;21212;-80
2023/05/15 10:38:13;;;;;;;7.97;1.85;;;;;;;32.42;18.44;100315.22;1624314;86;21211;-80
2023/05/15 10:41:20;;;;;;;8.08;1.65;;;;;;;32.53;18.05;100318.05;1613370;87;21903;-80
2023/05/15 10:44:25;;;;;;;11.57;1.92;;;;;;;32.45;17.86;100313.16;1625358;86;21260;-80
2023/05/15 10:47:31;;;;;;;2.27;1.32;;;;;;;32.70;17.50;100314.48;1634057;86;21260;-80
2023/05/15 10:50:40;;;;;;;5.05;1.60;;;;;;;32.93;17.83;100312.47;1625467;86;21215;-81
2023/05/15 10:53:39;;;;;;;5.25;1.27;;;;;;;32.95;17.42;100307.33;1638728;86;21244;-81
2023/05/15 10:56:46;;;;;;;7.00;1.42;;;;;;;32.66;17.84;100302.98;1633530;86;21213;-81
2023/05/15 10:59:52;;;;;;;5.87;1.70;;;;;;;32.54;17.54;100308.40;1618368;88;21272;-81
2023/05/15 11:02:59;;;;;;;2.95;1.60;;;;;;;32.74;19.00;100310.67;1599005;86;21221;-81
2023/05/15 11:06:18;;;;;;;7.10;1.80;;;;;;;33.41;18.06;100304.59;1613168;85;21207;-81
2023/05/15 11:09:41;;;;;;;6.08;1.90;;;;;;;33.65;17.13;100302.16;1647470;85;21208;-81
2023/05/15 11:13:05;;;;;;;5.65;1.65;;;;;;;33.95;16.34;100300.96;1632207;85;21272;-81
2023/05/15 11:16:10;;;;;;;6.00;1.57;;;;;;;34.10;16.60;100302.46;1671644;85;21292;-81
2023/05/15 11:19:45;;;;;;;4.15;1.40;;;;;;;34.16;16.74;100303.95;1633293;85;21221;-79
2023/05/15 11:22:51;;;;;;;3.35;1.47;;;;;;;34.27;17.20;100300.45;1642313;85;21276;-80
2023/05/15 11:25:50;;;;;;;6.60;1.30;;;;;;;34.35;17.29;100300.20;1628773;86;21208;-79
2023/05/15 11:28:56;;;;;;;9.90;1.90;;;;;;;34.48;17.41;100300.60;1636917;86;21378;-79
2023/05/15 11:32:02;;;;;;;4.80;1.80;;;;;;;34.51;17.91;100309.05;1655895;85;21208;-80
2023/05/15 11:35:08;;;;;;;4.85;1.70;;;;;;;34.51;17.91;100309.05;1657174;85;21207;-79
2023/05/15 11:38:27;;;;;;;5.97;1.70;;;;;;;34.64;17.24;100306.60;1636766;85;21217;-79
2023/05/15 11:41:30;;;;;;;4.28;1.75;;;;;;;34.53;16.99;100309.53;1639118;85;21422;-79
2023/05/15 11:44:34;;;;;;;10.90;2.55;;;;;;;34.27;16.28;100315.23;1627939;85;21224;-80
2023/05/15 11:47:39;;;;;;;8.55;2.30;;;;;;;34.09;16.78;100320.08;1634766;85;21218;-79
2023/05/15 11:50:40;;;;;;;12.10;2.30;;;;;;;33.56;17.13;100319.16;1648597;85;21248;-80
2023/05/15 11:53:46;;;;;;;12.40;2.00;;;;;;;32.92;17.81;100314.47;1648541;85;21264;-80
2023/05/15 11:56:52;;;;;;;6.65;1.72;;;;;;;32.79;18.23;100312.53;1648913;87;22321;-80
2023/05/15 12:00:01;;;;;;;4.80;1.95;;;;;;;32.76;18.72;100314.62;1641606;87;21266;-80
2023/05/15 12:03:06;;;;;;;10.63;2.50;;;;;;;32.54;19.00;100321.14;1651588;85;21212;-80
2023/05/15 12:06:13;;;;;;;10.85;2.08;;;;;;;32.32;19.49;100320.53;1640176;87;21185;-80
2023/05/15 12:09:26;;;;;;;9.75;2.05;;;;;;;32.05;19.52;100311.59;1658308;84;21218;-79
2023/05/15 12:12:30;;;;;;;7.05;2.40;;;;;;;31.94;19.56;100308.73;1657134;84;21212;-79
2023/05/15 12:15:36;;;;;;;8.45;2.05;;;;;;;32.17;19.83;100307.60;1661148;84;21265;-80
2023/05/15 12:18:42;;;;;;;7.00;1.82;;;;;;;32.25;18.90;100306.84;1653350;84;22193;-79
2023/05/15 12:21:53;;;;;;;5.33;1.60;;;;;;;32.26;18.46;100302.84;1657481;84;21478;-80
2023/05/15 12:24:59;;;;;;;14.40;2.10;;;;;;;32.34;18.17;100308.91;1651411;87;21228;-79
2023/05/15 12:28:00;;;;;;;11.90;2.37;;;;;;;32.34;18.52;100308.91;1651903;86;21221;-80
2023/05/15 12:31:06;;;;;;;8.43;1.95;;;;;;;32.25;18.44;100304.02;1649094;85;21283;-79
2023/05/15 12:34:12;;;;;;;5.85;1.98;;;;;;;32.53;18.31;100306.16;1646367;87;21229;-79
2023/05/15 12:37:21;;;;;;;2.85;1.55;;;;;;;32.42;18.19;100299.65;1645574;87;21300;-79
2023/05/15 12:40:27;;;;;;;2.72;1.20;;;;;;;32.51;18.57;100287.80;1641539;86;21209;-79
2023/05/15 12:43:33;;;;;;;2.12;1.35;;;;;;;32.63;18.35;100289.47;1644549;87;21219;-79
2023/05/15 12:46:39;;;;;;;8.18;1.60;;;;;;;32.60;17.39;100285.86;1642146;85;21369;-79
2023/05/15 12:49:48;;;;;;;17.17;2.02;;;;;;;32.69;17.87;100284.50;1640459;87;21261;-79
2023/05/15 12:53:04;;;;;;;4.70;1.70;;;;;;;32.65;18.13;100272.15;1646370;85;21228;-79
2023/05/15 12:56:09;;;;;;;2.95;1.70;;;;;;;32.86;18.88;100285.18;1658684;83;21247;-80
2023/05/15 12:59:17;;;;;;;4.58;2.10;;;;;;;32.88;18.51;100275.77;1642753;84;21835;-80
2023/05/15 13:02:26;;;;;;;4.37;2.02;;;;;;;32.47;19.45;100270.66;1613061;87;21283;-79
2023/05/15 13:05:37;;;;;;;5.67;1.87;;;;;;;32.14;19.97;100270.07;1679614;85;22286;-80
2023/05/15 13:08:49;;;;;;;7.80;1.70;;;;;;;32.52;19.05;100267.69;1623724;86;21267;-80
2023/05/15 13:11:54;;;;;;;6.92;1.70;;;;;;;32.53;19.22;100274.18;1637229;87;21281;-80
2023/05/15 13:15:00;;;;;;;3.42;1.55;;;;;;;32.54;19.41;100273.84;1619297;88;21276;-80
2023/05/15 13:18:18;;;;;;;5.60;1.77;;;;;;;32.65;19.35;100265.90;1635140;87;21268;-80
2023/05/15 13:21:24;;;;;;;7.60;2.00;;;;;;;32.63;19.87;100275.31;1635912;87;21276;-80
2023/05/15 13:24:30;;;;;;;11.30;1.87;;;;;;;32.64;19.65;100268.48;1633590;87;21232;-80
2023/05/15 13:27:36;;;;;;;11.50;1.80;;;;;;;32.44;19.73;100273.29;1635467;87;21233;-80
2023/05/15 13:30:42;;;;;;;7.40;2.52;;;;;;;32.53;19.53;100272.77;1636593;87;21922;-80
2023/05/15 13:33:48;;;;;;;4.62;1.62;;;;;;;32.67;19.63;100273.51;1636207;87;21276;-79
2023/05/15 13:36:55;;;;;;;5.53;2.02;;;;;;;32.82;19.56;100270.83;1637797;87;21763;-80
2023/05/15 13:40:00;;;;;;;4.85;1.85;;;;;;;32.45;19.78;100271.54;1636251;87;21229;-79
2023/05/15 13:43:06;;;;;;;3.00;1.87;;;;;;;32.81;19.44;100272.83;1638269;87;21273;-80
2023/05/15 13:46:12;;;;;;;6.15;2.15;;;;;;;32.42;19.74;100270.80;1636536;87;21216;-79
2023/05/15 13:49:20;;;;;;;7.67;2.35;;;;;;;32.22;20.74;100281.17;1635591;87;21244;-79
2023/05/15 13:52:25;;;;;;;5.97;1.90;;;;;;;32.18;20.23;100275.31;1636206;87;21736;-79
2023/05/15 13:55:33;;;;;;;5.37;1.98;;;;;;;32.06;20.61;100277.32;1632026;87;21326;-79
2023/05/15 13:58:39;;;;;;;10.03;1.90;;;;;;;31.94;20.95;100271.39;1632776;88;21259;-79
2023/05/15 14:01:45;;;;;;;6.00;1.90;;;;;;;31.90;21.33;100274.63;1633993;88;21221;-79
2023/05/15 14:04:50;;;;;;;5.03;2.10;;;;;;;31.95;21.26;100273.66;1633888;88;21228;-80
2023/05/15 14:07:58;;;;;;;4.83;1.90;;;;;;;31.94;21.28;100272.80;1632881;88;21311;-80
2023/05/15 14:11:02;;;;;;;11.35;2.87;;;;;;;31.78;20.93;100263.83;1638159;85;21802;-80
2023/05/15 14:14:09;;;;;;;6.58;1.85;;;;;;;31.90;21.51;100271.80;1634939;87;21219;-80
2023/05/15 14:17:15;;;;;;;9.60;2.50;;;;;;;31.97;21.66;100267.09;1652835;86;21242;-80
2023/05/15 14:20:21;;;;;;;7.40;2.20;;;;;;;32.10;21.13;100264.80;1648026;86;21199;-79
2023/05/15 14:23:29;;;;;;;3.25;1.80;;;;;;;31.93;21.17;100264.06;1645871;87;21218;-79
2023/05/15 14:26:35;;;;;;;4.47;1.80;;;;;;;31.97;20.45;100269.92;1645885;87;21203;-79